Courtney, North Carolina
Current Conditions -  °F | °C
As of 12:54 AM on Wednesday 28 Jan 2015 (Local Time) from KINT Reporting Station
Clear Clear  
Wind Chill: 17°   Ceiling: Unl
Heat Index: 28°   Visibility: 10mi
Dew Point: 10°   Wind: 14mph
Humidity: 47%   Direction: 330°NNW
Pressure: 30.03"   Gusts: 23mph
Location:  36.1267°N, 80.6582°W
Report Text: KINT 280554Z 33012G20KT 10SM CLR M02/M12 A3003 RMK AO2 PK WND 32028/0507 SLP176 T10221122 10033 21022 51018
Loading
Personal Weather Stations






























Interactive Weather Map New forecast layout! Learn more

10-Day Weather Forecast

Advertisements
Track Severe Weather on mobile